createdAt,value
2024-04-18T00:04:10.438Z,98146.31
2024-04-18T00:09:13.229Z,98150.03
2024-04-18T00:14:15.898Z,98166.97
2024-04-18T00:19:18.737Z,98168.25
2024-04-18T00:24:21.466Z,98163.91
2024-04-18T00:29:24.211Z,98166.81
2024-04-18T00:34:26.837Z,98179.13
2024-04-18T00:39:29.528Z,98182.81
2024-04-18T00:44:32.461Z,98193.47
2024-04-18T00:49:35.183Z,98204.16
2024-04-18T00:54:37.938Z,98214.78
2024-04-18T00:59:40.585Z,98222.66
2024-04-18T01:04:43.469Z,98238.56
2024-04-18T01:09:46.283Z,98248.50
2024-04-18T01:14:48.990Z,98250.53
2024-04-18T01:19:51.678Z,98237.50
2024-04-18T01:24:54.405Z,98230.53
2024-04-18T01:29:57.123Z,98227.66
2024-04-18T01:34:59.789Z,98231.13
2024-04-18T01:40:02.483Z,98222.63
2024-04-18T01:45:07.358Z,98216.47
2024-04-18T01:50:12.686Z,98219.19
2024-04-18T01:55:15.357Z,98216.72
2024-04-18T02:00:17.658Z,98214.03
2024-04-18T02:05:20.291Z,98217.00
2024-04-18T02:10:23.028Z,98223.81
2024-04-18T02:15:26.015Z,98220.13
2024-04-18T02:20:28.740Z,98228.56
2024-04-18T02:25:31.357Z,98230.00
2024-04-18T02:30:34.262Z,98234.06
2024-04-18T02:35:36.951Z,98236.44
2024-04-18T02:40:39.641Z,98239.88
2024-04-18T02:45:42.772Z,98244.63
2024-04-18T02:50:45.434Z,98241.81
2024-04-18T02:55:48.317Z,98244.50
2024-04-18T03:00:51.009Z,98244.03
2024-04-18T03:06:03.114Z,98236.44
2024-04-18T03:11:05.900Z,98241.09
2024-04-18T03:16:08.861Z,98241.13
2024-04-18T03:21:11.484Z,98241.63
2024-04-18T03:26:14.139Z,98244.53
2024-04-18T03:31:16.831Z,98242.13
2024-04-18T03:36:19.577Z,98239.25
2024-04-18T03:41:22.197Z,98243.78
2024-04-18T03:46:24.787Z,98238.47
2024-04-18T03:51:27.165Z,98241.53
2024-04-18T03:56:29.771Z,98246.78
2024-04-18T04:01:32.775Z,98241.28
2024-04-18T04:06:35.790Z,98253.22
2024-04-18T04:11:38.450Z,98252.72
2024-04-18T04:16:41.141Z,98263.59
2024-04-18T04:21:43.875Z,98245.56
2024-04-18T04:26:46.598Z,98258.09
2024-04-18T04:31:49.235Z,98262.16
2024-04-18T04:36:52.069Z,98279.88
2024-04-18T04:41:54.749Z,98298.63
2024-04-18T04:46:57.587Z,98311.59
2024-04-18T04:52:00.322Z,98300.31
2024-04-18T04:57:03.096Z,98301.53
2024-04-18T05:02:06.094Z,98306.00
2024-04-18T05:07:08.927Z,98304.59
2024-04-18T05:12:11.551Z,98303.16
2024-04-18T05:17:14.267Z,98298.66
2024-04-18T05:22:16.868Z,98309.97
2024-04-18T05:27:19.500Z,98305.09
2024-04-18T05:32:22.230Z,98308.56
2024-04-18T05:37:25.002Z,98313.03
2024-04-18T05:42:27.619Z,98317.91
2024-04-18T05:47:30.383Z,98326.41
2024-04-18T05:52:33.072Z,98326.88
2024-04-18T05:57:35.724Z,98323.88
2024-04-18T06:02:38.471Z,98330.34
2024-04-18T06:07:44.056Z,98325.94
2024-04-18T06:12:48.589Z,98310.16
2024-04-18T06:17:51.425Z,98311.81
2024-04-18T06:22:54.172Z,98317.69
2024-04-18T06:27:57.429Z,98322.19
2024-04-18T06:33:00.322Z,98321.72
2024-04-18T06:38:03.449Z,98322.63
2024-04-18T06:43:06.059Z,98323.28
2024-04-18T06:48:09.028Z,98319.66
2024-04-18T06:53:11.690Z,98328.44
2024-04-18T06:58:14.347Z,98337.75
2024-04-18T07:03:17.154Z,98354.38
2024-04-18T07:08:19.831Z,98356.38
2024-04-18T07:13:22.467Z,98361.66
2024-04-18T07:18:25.242Z,98365.72
2024-04-18T07:23:27.918Z,98353.44
2024-04-18T07:28:30.604Z,98336.81
2024-04-18T07:33:33.473Z,98349.69
2024-04-18T07:38:36.283Z,98346.66
2024-04-18T07:43:39.097Z,98353.13
2024-04-18T07:48:42.227Z,98355.88
2024-04-18T07:53:45.029Z,98369.97
2024-04-18T07:58:47.940Z,98354.50
2024-04-18T08:04:02.590Z,98359.75
2024-04-18T08:09:15.781Z,98375.66
2024-04-18T08:14:24.965Z,98350.19
2024-04-18T08:19:30.300Z,98335.28
2024-04-18T08:24:32.906Z,98326.91
2024-04-18T08:29:35.599Z,98333.44
2024-04-18T08:34:41.107Z,98339.41
2024-04-18T08:39:45.776Z,98343.91
2024-04-18T08:44:48.373Z,98362.13
2024-04-18T08:49:51.033Z,98345.44
2024-04-18T08:54:53.813Z,98370.72
2024-04-18T09:00:00.881Z,98360.34
2024-04-18T09:05:03.533Z,98376.00
2024-04-18T09:10:10.090Z,98350.75
2024-04-18T09:15:12.632Z,98342.56
2024-04-18T09:20:15.336Z,98339.41
2024-04-18T09:25:18.003Z,98347.09
2024-04-18T09:30:21.075Z,98353.63
2024-04-18T09:35:23.849Z,98351.00
2024-04-18T09:40:27.473Z,98349.38
2024-04-18T09:45:50.604Z,98363.09
2024-04-18T09:50:53.291Z,98350.22
2024-04-18T09:55:55.920Z,98362.41
2024-04-18T10:00:58.776Z,98365.59
2024-04-18T10:06:05.133Z,98371.38
2024-04-18T10:11:08.389Z,98372.00
2024-04-18T10:16:12.009Z,98374.81
2024-04-18T10:21:32.914Z,98382.63
2024-04-18T10:26:40.815Z,98400.63
2024-04-18T10:31:43.385Z,98399.78
2024-04-18T10:36:46.068Z,98397.47
2024-04-18T10:41:48.713Z,98403.19
2024-04-18T10:46:51.663Z,98417.75
2024-04-18T10:51:54.295Z,98412.63
2024-04-18T10:56:56.960Z,98408.38
2024-04-18T11:02:08.778Z,98414.31
2024-04-18T11:07:11.482Z,98404.53
2024-04-18T11:12:14.237Z,98394.47
2024-04-18T11:17:16.902Z,98414.69
2024-04-18T11:22:19.517Z,98401.69
2024-04-18T11:27:26.998Z,98416.78
2024-04-18T11:32:32.454Z,98418.84
2024-04-18T11:37:39.542Z,98417.84
2024-04-18T11:42:43.498Z,98406.06
2024-04-18T11:47:46.422Z,98414.44
2024-04-18T11:52:49.126Z,98416.75
2024-04-18T11:57:51.765Z,98433.50
2024-04-18T12:02:54.540Z,98454.22
2024-04-18T12:07:57.353Z,98442.03
2024-04-18T12:12:59.950Z,98445.88
2024-04-18T12:18:02.709Z,98429.50
2024-04-18T12:23:05.504Z,98423.41
2024-04-18T12:28:08.094Z,98422.53
2024-04-18T12:33:13.572Z,98416.78
2024-04-18T12:38:16.403Z,98404.19
2024-04-18T12:43:20.409Z,98406.03
2024-04-18T12:48:23.213Z,98407.03
2024-04-18T12:53:26.075Z,98395.53
2024-04-18T12:58:28.683Z,98393.06
2024-04-18T13:03:31.458Z,98381.66
2024-04-18T13:08:34.176Z,98378.06
2024-04-18T13:13:36.746Z,98375.25
2024-04-18T13:18:39.009Z,98426.34
2024-04-18T13:23:41.612Z,98396.16
2024-04-18T13:28:44.241Z,98404.81
2024-04-18T13:33:47.066Z,98412.75
2024-04-18T13:38:50.491Z,98401.28
2024-04-18T13:43:53.072Z,98401.50
2024-04-18T13:48:55.673Z,98396.13
2024-04-18T13:53:58.399Z,98370.00
2024-04-18T13:59:01.087Z,98365.22
2024-04-18T14:04:04.279Z,98381.03
2024-04-18T14:09:09.368Z,98388.50
2024-04-18T14:14:15.822Z,98382.41
2024-04-18T14:19:18.187Z,98394.06
2024-04-18T14:24:20.993Z,98402.13
2024-04-18T14:29:23.764Z,98411.66
2024-04-18T14:34:26.525Z,98407.09
2024-04-18T14:39:29.249Z,98411.66
2024-04-18T14:44:31.969Z,98417.59
2024-04-18T14:49:34.637Z,98423.41
2024-04-18T14:54:37.287Z,98420.19
2024-04-18T14:59:39.918Z,98415.59
2024-04-18T15:04:42.633Z,98430.66
2024-04-18T15:09:45.395Z,98443.75
2024-04-18T15:14:50.177Z,98421.47
2024-04-18T15:19:53.568Z,98425.53
2024-04-18T15:24:56.144Z,98413.69
2024-04-18T15:29:58.411Z,98419.75
2024-04-18T15:35:01.063Z,98415.44
2024-04-18T15:40:03.895Z,98406.97
2024-04-18T15:45:10.245Z,98395.81
2024-04-18T15:50:13.191Z,98394.00
2024-04-18T15:55:20.323Z,98405.16
2024-04-18T16:00:24.867Z,98388.94
2024-04-18T16:05:27.572Z,98394.69
2024-04-18T16:10:30.334Z,98391.38
2024-04-18T16:15:33.186Z,98391.84
2024-04-18T16:20:36.036Z,98384.19
2024-04-18T16:25:38.751Z,98386.63
2024-04-18T16:30:46.266Z,98395.13
2024-04-18T16:35:48.972Z,98405.69
2024-04-18T16:40:52.175Z,98394.22
2024-04-18T16:45:55.426Z,98394.47
2024-04-18T16:50:58.010Z,98405.31
2024-04-18T16:56:00.684Z,98387.63
2024-04-18T17:01:03.887Z,98382.81
2024-04-18T17:06:07.010Z,98394.22
2024-04-18T17:11:09.720Z,98387.16
2024-04-18T17:16:12.845Z,98370.78
2024-04-18T17:21:15.641Z,98353.66
2024-04-18T17:26:18.372Z,98354.13
2024-04-18T17:31:21.106Z,98335.19
2024-04-18T17:36:23.806Z,98364.97
2024-04-18T17:41:26.603Z,98334.75
2024-04-18T17:46:29.443Z,98332.88
2024-04-18T17:51:32.223Z,98329.13
2024-04-18T17:56:34.954Z,98326.66
2024-04-18T18:01:39.961Z,98321.53
2024-04-18T18:06:44.460Z,98326.66
2024-04-18T18:17:31.267Z,98313.69
2024-04-18T18:22:33.974Z,98292.63
2024-04-18T18:27:36.660Z,98283.72
2024-04-18T18:32:39.503Z,98271.63
2024-04-18T18:37:42.284Z,98265.34
2024-04-18T18:42:44.974Z,98246.25
2024-04-18T18:47:47.849Z,98226.03
2024-04-18T18:52:50.570Z,98226.91
2024-04-18T18:57:53.283Z,98222.16
2024-04-18T19:03:32.978Z,98209.16
2024-04-18T19:08:41.722Z,98204.13
2024-04-18T19:13:50.161Z,98200.81
2024-04-18T19:18:52.878Z,98193.78
2024-04-18T19:23:55.534Z,98179.66
2024-04-18T19:28:57.809Z,98173.94
2024-04-18T19:34:00.727Z,98152.97
2024-04-18T19:39:03.739Z,98132.56
2024-04-18T19:44:06.367Z,98141.78
2024-04-18T19:49:09.586Z,98135.38
2024-04-18T19:54:12.310Z,98131.00
2024-04-18T19:59:15.084Z,98127.06
2024-04-18T20:05:06.993Z,98114.47
2024-04-18T20:10:21.559Z,98106.38
2024-04-18T20:15:24.244Z,98106.78
2024-04-18T20:20:26.865Z,98091.69
2024-04-18T20:25:29.078Z,98080.34
2024-04-18T20:30:31.771Z,98073.09
2024-04-18T20:35:34.551Z,98077.50
2024-04-18T20:40:37.257Z,98063.88
2024-04-18T20:45:39.899Z,98042.97
2024-04-18T20:50:42.635Z,98038.13
2024-04-18T20:55:45.319Z,98029.72
2024-04-18T21:00:48.078Z,97991.22
2024-04-18T21:05:50.927Z,97981.78
2024-04-18T21:10:53.675Z,97996.13
2024-04-18T21:16:00.493Z,97981.84
2024-04-18T21:21:03.204Z,97982.38
2024-04-18T21:26:06.266Z,97995.91
2024-04-18T21:31:08.871Z,97974.28
2024-04-18T21:36:11.187Z,97955.38
2024-04-18T21:41:13.780Z,97959.38
2024-04-18T21:46:16.398Z,97932.97
2024-04-18T21:51:19.167Z,97917.34
2024-04-18T21:56:21.891Z,97905.41
2024-04-18T22:01:24.645Z,97915.97
2024-04-18T22:06:27.401Z,97897.72
2024-04-18T22:11:30.294Z,97873.06
2024-04-18T22:16:32.981Z,97873.66
2024-04-18T22:21:39.114Z,97867.63
2024-04-18T22:26:41.786Z,97865.28
2024-04-18T22:31:44.636Z,97850.59
2024-04-18T22:36:47.309Z,97852.66
2024-04-18T22:41:49.986Z,97822.75
2024-04-18T22:46:52.656Z,97804.63
2024-04-18T22:51:55.355Z,97790.53
2024-04-18T22:56:58.005Z,97787.13
2024-04-18T23:02:00.968Z,97782.16
2024-04-18T23:07:03.756Z,97748.03
2024-04-18T23:12:06.646Z,97748.22
2024-04-18T23:17:09.257Z,97770.97
2024-04-18T23:22:11.521Z,97745.75
2024-04-18T23:27:14.334Z,97740.38
2024-04-18T23:32:17.091Z,97761.50
2024-04-18T23:37:19.800Z,97738.41
2024-04-18T23:42:22.518Z,97718.31
2024-04-18T23:47:25.401Z,97714.59
2024-04-18T23:52:28.118Z,97688.88
2024-04-18T23:57:30.792Z,97680.25
